This is the latest recevied weather packets stored in our database for station/object WH6VH. If no packets are shown the sender has not sent any weather packets the latest 10 day(s).
| Time | Temp. | Humidity | Pressure | Rain* | Wind** | Luminosity | Snow |
|---|---|---|---|---|---|---|---|
| 1777998604 | 3.33° C | 94% | 1012.9 hPa | 0.25 mm | - | - | - |
| 1777995604 | 2.78° C | 94% | 1012.8 hPa | 0.25 mm | - | - | - |
| 1777994103 | 2.78° C | 94% | 1012.6 hPa | 0.25 mm | - | - | - |
| 1777992903 | 2.78° C | 94% | 1012.5 hPa | 0.25 mm | - | - | - |
| 1777990504 | 2.22° C | 93% | 1012.4 hPa | 0.25 mm | - | - | - |
| 1777989603 | 2.22° C | 93% | 1012.2 hPa | 0.25 mm | - | - | - |
| 1777986003 | 2.78° C | 92% | 1011 hPa | 0.51 mm | - | - | - |
| 1777984504 | 3.33° C | 92% | 1010 hPa | 1.27 mm | - | - | - |
| 1777982705 | 3.89° C | 91% | 1009.8 hPa | 1.02 mm | - | - | - |
| 1777980004 | 5.56° C | 89% | 1009.2 hPa | 0 mm | - | - | - |
| 1777977608 | 6.11° C | 88% | 1007.7 hPa | 0 mm | - | - | - |
| 1777974904 | 7.22° C | 87% | 1007.6 hPa | 0 mm | - | - | - |
| 1777974604 | 7.22° C | 87% | 1007.6 hPa | 0 mm | - | - | - |
| 1777970704 | 7.78° C | 88% | 1007.7 hPa | 0 mm | - | - | - |
| 1777968003 | 7.78° C | 90% | 1007.7 hPa | 0 mm | - | - | - |
| 1777967103 | 7.78° C | 90% | 1007.7 hPa | 0 mm | - | - | - |
| 1777959004 | 8.33° C | 90% | 1008 hPa | 0.51 mm | - | - | - |
| 1777956605 | 8.33° C | 89% | 1008.6 hPa | 1.02 mm | - | - | - |
| 1777954205 | 9.44° C | 81% | 1008.5 hPa | 0.51 mm | - | - | - |
| 1777952404 | 11.11° C | 66% | 1007.8 hPa | 0 mm | - | - | - |
| 1777949704 | 11.67° C | 62% | 1006.9 hPa | 0 mm | - | - | - |
| 1777947304 | 11.67° C | 62% | 1006.4 hPa | 0 mm | - | - | - |
| 1777944905 | 12.22° C | 57% | 1005.6 hPa | 0 mm | - | - | - |
| 1777944604 | 12.22° C | 57% | 1005.7 hPa | 0 mm | - | - | - |
| 1777944004 | 12.78° C | 55% | 1005.9 hPa | 0 mm | - | - | - |
* Rain latest hour (hover to see other rain measurements)
** Current wind speed in m/s (hover to see current wind gust speed)